sensor_id;sensor_type;location;lat;lon;timestamp;P1;durP1;ratioP1;P2;durP2;ratioP2
3321;SDS011;1673;51.388;7.086;2023-05-10T00:02:03;10.30;;;6.13;;
3321;SDS011;1673;51.388;7.086;2023-05-10T00:04:33;12.60;;;6.88;;
3321;SDS011;1673;51.388;7.086;2023-05-10T00:07:03;15.38;;;7.70;;
3321;SDS011;1673;51.388;7.086;2023-05-10T00:09:33;17.48;;;8.20;;
3321;SDS011;1673;51.388;7.086;2023-05-10T00:12:05;17.08;;;7.57;;
3321;SDS011;1673;51.388;7.086;2023-05-10T00:14:35;15.77;;;8.13;;
3321;SDS011;1673;51.388;7.086;2023-05-10T00:17:04;24.13;;;9.15;;
3321;SDS011;1673;51.388;7.086;2023-05-10T00:19:34;21.58;;;10.13;;
3321;SDS011;1673;51.388;7.086;2023-05-10T00:22:04;20.13;;;10.38;;
3321;SDS011;1673;51.388;7.086;2023-05-10T00:24:34;17.15;;;9.18;;
3321;SDS011;1673;51.388;7.086;2023-05-10T00:27:06;20.77;;;9.57;;
3321;SDS011;1673;51.388;7.086;2023-05-10T00:29:36;26.67;;;10.07;;
3321;SDS011;1673;51.388;7.086;2023-05-10T00:32:05;20.98;;;9.85;;
3321;SDS011;1673;51.388;7.086;2023-05-10T00:34:35;19.58;;;10.30;;
3321;SDS011;1673;51.388;7.086;2023-05-10T00:37:05;20.58;;;9.85;;
3321;SDS011;1673;51.388;7.086;2023-05-10T00:39:35;18.52;;;8.98;;
3321;SDS011;1673;51.388;7.086;2023-05-10T00:42:07;16.53;;;8.10;;
3321;SDS011;1673;51.388;7.086;2023-05-10T00:44:37;16.20;;;7.65;;
3321;SDS011;1673;51.388;7.086;2023-05-10T00:47:07;15.50;;;7.80;;
3321;SDS011;1673;51.388;7.086;2023-05-10T00:49:37;17.35;;;8.30;;
3321;SDS011;1673;51.388;7.086;2023-05-10T00:52:07;14.98;;;7.80;;
3321;SDS011;1673;51.388;7.086;2023-05-10T00:54:37;18.27;;;9.10;;
3321;SDS011;1673;51.388;7.086;2023-05-10T00:57:09;18.05;;;9.30;;
3321;SDS011;1673;51.388;7.086;2023-05-10T00:59:39;18.60;;;9.30;;
3321;SDS011;1673;51.388;7.086;2023-05-10T01:02:09;21.17;;;10.32;;
3321;SDS011;1673;51.388;7.086;2023-05-10T01:04:39;21.05;;;10.43;;
3321;SDS011;1673;51.388;7.086;2023-05-10T01:07:09;19.08;;;10.60;;
3321;SDS011;1673;51.388;7.086;2023-05-10T01:09:39;20.27;;;10.20;;
3321;SDS011;1673;51.388;7.086;2023-05-10T01:12:13;22.00;;;11.57;;
3321;SDS011;1673;51.388;7.086;2023-05-10T01:14:42;22.52;;;12.15;;
3321;SDS011;1673;51.388;7.086;2023-05-10T01:17:12;23.60;;;12.50;;
3321;SDS011;1673;51.388;7.086;2023-05-10T01:19:42;22.90;;;13.23;;
3321;SDS011;1673;51.388;7.086;2023-05-10T01:22:20;24.20;;;13.57;;
3321;SDS011;1673;51.388;7.086;2023-05-10T01:25:11;24.83;;;13.93;;
3321;SDS011;1673;51.388;7.086;2023-05-10T01:28:06;27.45;;;15.50;;
3321;SDS011;1673;51.388;7.086;2023-05-10T01:33:41;28.95;;;15.95;;
3321;SDS011;1673;51.388;7.086;2023-05-10T01:36:16;27.27;;;15.73;;
3321;SDS011;1673;51.388;7.086;2023-05-10T01:38:53;30.90;;;17.05;;
3321;SDS011;1673;51.388;7.086;2023-05-10T01:41:28;27.75;;;16.20;;
3321;SDS011;1673;51.388;7.086;2023-05-10T01:44:02;33.67;;;18.20;;
3321;SDS011;1673;51.388;7.086;2023-05-10T01:46:37;28.35;;;17.50;;
3321;SDS011;1673;51.388;7.086;2023-05-10T01:49:11;27.98;;;16.00;;
3321;SDS011;1673;51.388;7.086;2023-05-10T01:51:46;33.97;;;17.30;;
3321;SDS011;1673;51.388;7.086;2023-05-10T01:54:21;31.00;;;16.40;;
3321;SDS011;1673;51.388;7.086;2023-05-10T01:56:55;27.10;;;15.95;;
3321;SDS011;1673;51.388;7.086;2023-05-10T01:59:28;30.38;;;17.05;;
3321;SDS011;1673;51.388;7.086;2023-05-10T02:02:00;29.55;;;16.65;;
3321;SDS011;1673;51.388;7.086;2023-05-10T02:04:33;31.42;;;16.60;;
3321;SDS011;1673;51.388;7.086;2023-05-10T02:07:04;35.83;;;16.70;;
3321;SDS011;1673;51.388;7.086;2023-05-10T02:09:35;34.95;;;18.17;;
3321;SDS011;1673;51.388;7.086;2023-05-10T02:12:06;36.23;;;18.30;;
3321;SDS011;1673;51.388;7.086;2023-05-10T02:14:36;32.65;;;17.65;;
3321;SDS011;1673;51.388;7.086;2023-05-10T02:17:06;31.75;;;16.85;;
3321;SDS011;1673;51.388;7.086;2023-05-10T02:19:40;32.28;;;16.90;;
3321;SDS011;1673;51.388;7.086;2023-05-10T02:22:11;29.20;;;16.47;;
3321;SDS011;1673;51.388;7.086;2023-05-10T02:24:42;27.60;;;15.80;;
3321;SDS011;1673;51.388;7.086;2023-05-10T02:27:13;27.13;;;15.38;;
3321;SDS011;1673;51.388;7.086;2023-05-10T02:29:43;27.10;;;16.00;;
3321;SDS011;1673;51.388;7.086;2023-05-10T02:32:14;33.42;;;17.50;;
3321;SDS011;1673;51.388;7.086;2023-05-10T02:34:48;33.72;;;17.83;;
3321;SDS011;1673;51.388;7.086;2023-05-10T02:37:18;32.20;;;16.50;;
3321;SDS011;1673;51.388;7.086;2023-05-10T02:39:49;33.80;;;18.40;;
3321;SDS011;1673;51.388;7.086;2023-05-10T02:42:22;37.05;;;19.38;;
3321;SDS011;1673;51.388;7.086;2023-05-10T02:44:53;34.17;;;18.65;;
3321;SDS011;1673;51.388;7.086;2023-05-10T02:47:25;35.63;;;19.15;;
3321;SDS011;1673;51.388;7.086;2023-05-10T02:49:57;40.70;;;20.38;;
3321;SDS011;1673;51.388;7.086;2023-05-10T02:52:30;35.45;;;19.02;;
3321;SDS011;1673;51.388;7.086;2023-05-10T02:55:09;39.58;;;18.75;;
3321;SDS011;1673;51.388;7.086;2023-05-10T02:57:51;38.13;;;18.23;;
3321;SDS011;1673;51.388;7.086;2023-05-10T03:00:22;32.00;;;17.20;;
3321;SDS011;1673;51.388;7.086;2023-05-10T03:02:53;32.03;;;17.63;;
3321;SDS011;1673;51.388;7.086;2023-05-10T03:05:27;34.47;;;18.35;;
3321;SDS011;1673;51.388;7.086;2023-05-10T03:07:59;34.00;;;18.33;;
3321;SDS011;1673;51.388;7.086;2023-05-10T03:10:30;30.35;;;17.45;;
3321;SDS011;1673;51.388;7.086;2023-05-10T03:13:06;34.72;;;17.88;;
3321;SDS011;1673;51.388;7.086;2023-05-10T03:15:42;35.20;;;18.95;;
3321;SDS011;1673;51.388;7.086;2023-05-10T03:18:15;38.60;;;18.88;;
3321;SDS011;1673;51.388;7.086;2023-05-10T03:20:53;36.30;;;18.70;;
3321;SDS011;1673;51.388;7.086;2023-05-10T03:23:34;37.03;;;18.88;;
3321;SDS011;1673;51.388;7.086;2023-05-10T03:26:04;33.83;;;17.48;;
3321;SDS011;1673;51.388;7.086;2023-05-10T03:28:35;32.33;;;17.57;;
3321;SDS011;1673;51.388;7.086;2023-05-10T03:31:05;36.08;;;16.25;;
3321;SDS011;1673;51.388;7.086;2023-05-10T03:33:36;32.55;;;17.98;;
3321;SDS011;1673;51.388;7.086;2023-05-10T03:36:23;32.90;;;17.08;;
3321;SDS011;1673;51.388;7.086;2023-05-10T03:38:54;37.03;;;17.60;;
3321;SDS011;1673;51.388;7.086;2023-05-10T03:41:24;36.00;;;17.00;;
3321;SDS011;1673;51.388;7.086;2023-05-10T03:43:54;37.90;;;17.58;;
3321;SDS011;1673;51.388;7.086;2023-05-10T03:46:23;36.80;;;17.30;;
3321;SDS011;1673;51.388;7.086;2023-05-10T03:48:53;29.85;;;15.77;;
3321;SDS011;1673;51.388;7.086;2023-05-10T03:51:26;36.63;;;17.02;;
3321;SDS011;1673;51.388;7.086;2023-05-10T03:53:57;38.63;;;17.10;;
3321;SDS011;1673;51.388;7.086;2023-05-10T03:56:27;33.63;;;17.17;;
3321;SDS011;1673;51.388;7.086;2023-05-10T03:58:57;33.33;;;16.88;;
3321;SDS011;1673;51.388;7.086;2023-05-10T04:01:27;39.53;;;19.30;;
3321;SDS011;1673;51.388;7.086;2023-05-10T04:03:57;40.60;;;17.92;;
3321;SDS011;1673;51.388;7.086;2023-05-10T04:06:29;38.10;;;17.27;;
3321;SDS011;1673;51.388;7.086;2023-05-10T04:08:59;38.97;;;18.80;;
3321;SDS011;1673;51.388;7.086;2023-05-10T04:11:30;43.92;;;19.50;;
3321;SDS011;1673;51.388;7.086;2023-05-10T04:14:00;43.47;;;19.85;;
3321;SDS011;1673;51.388;7.086;2023-05-10T04:16:30;43.58;;;20.15;;
3321;SDS011;1673;51.388;7.086;2023-05-10T04:18:59;48.10;;;19.80;;
3321;SDS011;1673;51.388;7.086;2023-05-10T04:21:32;40.10;;;19.02;;
3321;SDS011;1673;51.388;7.086;2023-05-10T04:24:02;42.53;;;19.88;;
3321;SDS011;1673;51.388;7.086;2023-05-10T04:26:32;49.40;;;21.52;;
3321;SDS011;1673;51.388;7.086;2023-05-10T04:29:02;52.33;;;22.55;;
3321;SDS011;1673;51.388;7.086;2023-05-10T04:31:32;56.63;;;24.45;;
3321;SDS011;1673;51.388;7.086;2023-05-10T04:34:02;57.13;;;24.23;;
3321;SDS011;1673;51.388;7.086;2023-05-10T04:36:35;63.67;;;26.52;;
3321;SDS011;1673;51.388;7.086;2023-05-10T04:39:04;61.10;;;25.10;;
3321;SDS011;1673;51.388;7.086;2023-05-10T04:41:35;64.93;;;26.85;;
3321;SDS011;1673;51.388;7.086;2023-05-10T04:44:07;67.53;;;26.83;;
3321;SDS011;1673;51.388;7.086;2023-05-10T04:46:36;67.03;;;26.40;;
3321;SDS011;1673;51.388;7.086;2023-05-10T04:49:06;73.22;;;27.70;;
3321;SDS011;1673;51.388;7.086;2023-05-10T04:51:38;65.68;;;25.88;;
3321;SDS011;1673;51.388;7.086;2023-05-10T04:54:08;67.13;;;28.17;;
3321;SDS011;1673;51.388;7.086;2023-05-10T04:56:38;68.05;;;26.50;;
3321;SDS011;1673;51.388;7.086;2023-05-10T04:59:07;62.25;;;25.60;;
3321;SDS011;1673;51.388;7.086;2023-05-10T05:01:37;72.70;;;27.40;;
3321;SDS011;1673;51.388;7.086;2023-05-10T05:04:07;68.22;;;26.40;;
3321;SDS011;1673;51.388;7.086;2023-05-10T05:06:39;64.63;;;27.45;;
3321;SDS011;1673;51.388;7.086;2023-05-10T05:09:09;72.50;;;26.35;;
3321;SDS011;1673;51.388;7.086;2023-05-10T05:11:39;77.45;;;28.45;;
3321;SDS011;1673;51.388;7.086;2023-05-10T05:14:09;79.32;;;28.70;;
3321;SDS011;1673;51.388;7.086;2023-05-10T05:16:39;74.60;;;27.92;;
3321;SDS011;1673;51.388;7.086;2023-05-10T05:19:08;70.35;;;28.40;;
3321;SDS011;1673;51.388;7.086;2023-05-10T05:21:41;78.72;;;30.25;;
3321;SDS011;1673;51.388;7.086;2023-05-10T05:24:11;82.47;;;29.60;;
3321;SDS011;1673;51.388;7.086;2023-05-10T05:26:40;85.38;;;32.47;;
3321;SDS011;1673;51.388;7.086;2023-05-10T05:29:10;82.00;;;31.50;;
3321;SDS011;1673;51.388;7.086;2023-05-10T05:31:40;80.35;;;30.08;;
3321;SDS011;1673;51.388;7.086;2023-05-10T05:34:10;84.68;;;32.28;;
3321;SDS011;1673;51.388;7.086;2023-05-10T05:36:42;83.78;;;32.00;;
3321;SDS011;1673;51.388;7.086;2023-05-10T05:39:12;85.53;;;33.85;;
3321;SDS011;1673;51.388;7.086;2023-05-10T05:41:41;86.63;;;32.30;;
3321;SDS011;1673;51.388;7.086;2023-05-10T05:44:12;86.32;;;34.75;;
3321;SDS011;1673;51.388;7.086;2023-05-10T05:46:42;84.30;;;33.23;;
3321;SDS011;1673;51.388;7.086;2023-05-10T05:49:11;84.22;;;33.00;;
3321;SDS011;1673;51.388;7.086;2023-05-10T05:51:44;75.38;;;31.88;;
3321;SDS011;1673;51.388;7.086;2023-05-10T05:54:16;75.03;;;30.27;;
3321;SDS011;1673;51.388;7.086;2023-05-10T05:56:45;82.00;;;33.38;;
3321;SDS011;1673;51.388;7.086;2023-05-10T05:59:15;78.75;;;31.70;;
3321;SDS011;1673;51.388;7.086;2023-05-10T06:01:45;70.32;;;30.42;;
3321;SDS011;1673;51.388;7.086;2023-05-10T06:04:15;81.85;;;32.25;;
3321;SDS011;1673;51.388;7.086;2023-05-10T06:06:47;69.85;;;30.05;;
3321;SDS011;1673;51.388;7.086;2023-05-10T06:09:17;65.85;;;29.90;;
3321;SDS011;1673;51.388;7.086;2023-05-10T06:11:47;67.75;;;30.08;;
3321;SDS011;1673;51.388;7.086;2023-05-10T06:14:17;71.33;;;30.60;;
3321;SDS011;1673;51.388;7.086;2023-05-10T06:16:46;71.15;;;29.45;;
3321;SDS011;1673;51.388;7.086;2023-05-10T06:19:16;64.90;;;28.90;;
3321;SDS011;1673;51.388;7.086;2023-05-10T06:21:48;73.60;;;30.40;;
3321;SDS011;1673;51.388;7.086;2023-05-10T06:24:19;67.20;;;30.23;;
3321;SDS011;1673;51.388;7.086;2023-05-10T06:26:49;65.47;;;28.75;;
3321;SDS011;1673;51.388;7.086;2023-05-10T06:29:18;74.75;;;29.63;;
3321;SDS011;1673;51.388;7.086;2023-05-10T06:31:48;62.47;;;28.88;;
3321;SDS011;1673;51.388;7.086;2023-05-10T06:34:18;67.75;;;29.95;;
3321;SDS011;1673;51.388;7.086;2023-05-10T06:36:50;62.28;;;29.30;;
3321;SDS011;1673;51.388;7.086;2023-05-10T06:39:20;71.10;;;31.97;;
3321;SDS011;1673;51.388;7.086;2023-05-10T06:41:50;74.32;;;31.60;;
3321;SDS011;1673;51.388;7.086;2023-05-10T06:44:20;77.00;;;33.47;;
3321;SDS011;1673;51.388;7.086;2023-05-10T06:46:50;75.57;;;32.50;;
3321;SDS011;1673;51.388;7.086;2023-05-10T06:49:21;84.53;;;33.65;;
3321;SDS011;1673;51.388;7.086;2023-05-10T06:51:54;73.75;;;32.28;;
3321;SDS011;1673;51.388;7.086;2023-05-10T06:54:24;77.07;;;33.05;;
3321;SDS011;1673;51.388;7.086;2023-05-10T06:56:54;79.63;;;34.30;;
3321;SDS011;1673;51.388;7.086;2023-05-10T06:59:24;81.97;;;35.30;;
3321;SDS011;1673;51.388;7.086;2023-05-10T07:01:54;85.22;;;35.10;;
3321;SDS011;1673;51.388;7.086;2023-05-10T07:04:23;92.33;;;37.67;;
3321;SDS011;1673;51.388;7.086;2023-05-10T07:06:56;93.37;;;37.97;;
3321;SDS011;1673;51.388;7.086;2023-05-10T07:09:26;84.10;;;35.63;;
3321;SDS011;1673;51.388;7.086;2023-05-10T07:11:56;90.93;;;36.70;;
3321;SDS011;1673;51.388;7.086;2023-05-10T07:14:26;89.32;;;35.00;;
3321;SDS011;1673;51.388;7.086;2023-05-10T07:16:56;85.47;;;33.23;;
3321;SDS011;1673;51.388;7.086;2023-05-10T07:19:25;80.10;;;33.10;;
3321;SDS011;1673;51.388;7.086;2023-05-10T07:21:58;78.32;;;32.47;;
3321;SDS011;1673;51.388;7.086;2023-05-10T07:24:28;76.15;;;30.52;;
3321;SDS011;1673;51.388;7.086;2023-05-10T07:26:57;69.28;;;29.10;;
3321;SDS011;1673;51.388;7.086;2023-05-10T07:29:27;67.65;;;28.75;;
3321;SDS011;1673;51.388;7.086;2023-05-10T07:31:57;68.17;;;28.10;;
3321;SDS011;1673;51.388;7.086;2023-05-10T07:34:27;68.28;;;28.70;;
3321;SDS011;1673;51.388;7.086;2023-05-10T07:37:00;72.18;;;28.55;;
3321;SDS011;1673;51.388;7.086;2023-05-10T07:39:30;69.80;;;29.40;;
3321;SDS011;1673;51.388;7.086;2023-05-10T07:42:00;68.18;;;28.27;;
3321;SDS011;1673;51.388;7.086;2023-05-10T07:44:30;67.25;;;28.52;;
3321;SDS011;1673;51.388;7.086;2023-05-10T07:47:00;80.03;;;29.67;;
3321;SDS011;1673;51.388;7.086;2023-05-10T07:49:29;69.30;;;28.30;;
3321;SDS011;1673;51.388;7.086;2023-05-10T07:52:02;67.63;;;27.90;;
3321;SDS011;1673;51.388;7.086;2023-05-10T07:54:32;74.07;;;27.73;;
3321;SDS011;1673;51.388;7.086;2023-05-10T07:57:02;67.60;;;28.20;;
3321;SDS011;1673;51.388;7.086;2023-05-10T07:59:31;71.03;;;28.10;;
3321;SDS011;1673;51.388;7.086;2023-05-10T08:02:01;66.80;;;27.42;;
3321;SDS011;1673;51.388;7.086;2023-05-10T08:04:31;72.55;;;28.13;;
3321;SDS011;1673;51.388;7.086;2023-05-10T08:07:03;82.60;;;29.38;;
3321;SDS011;1673;51.388;7.086;2023-05-10T08:09:33;95.13;;;28.45;;
3321;SDS011;1673;51.388;7.086;2023-05-10T08:12:03;83.20;;;30.03;;
3321;SDS011;1673;51.388;7.086;2023-05-10T08:14:34;78.93;;;30.45;;
3321;SDS011;1673;51.388;7.086;2023-05-10T08:17:04;63.85;;;26.15;;
3321;SDS011;1673;51.388;7.086;2023-05-10T08:19:33;71.30;;;28.15;;
3321;SDS011;1673;51.388;7.086;2023-05-10T08:22:06;57.97;;;24.63;;
3321;SDS011;1673;51.388;7.086;2023-05-10T08:24:36;51.80;;;22.00;;
3321;SDS011;1673;51.388;7.086;2023-05-10T08:27:08;52.90;;;21.75;;
3321;SDS011;1673;51.388;7.086;2023-05-10T08:29:38;43.63;;;18.57;;
3321;SDS011;1673;51.388;7.086;2023-05-10T08:32:16;33.88;;;16.40;;
3321;SDS011;1673;51.388;7.086;2023-05-10T08:34:45;32.10;;;15.55;;
3321;SDS011;1673;51.388;7.086;2023-05-10T08:37:18;29.00;;;14.45;;
3321;SDS011;1673;51.388;7.086;2023-05-10T08:39:47;32.20;;;15.27;;
3321;SDS011;1673;51.388;7.086;2023-05-10T08:42:19;34.33;;;15.00;;
3321;SDS011;1673;51.388;7.086;2023-05-10T08:44:49;33.28;;;15.65;;
3321;SDS011;1673;51.388;7.086;2023-05-10T08:47:19;36.67;;;16.70;;
3321;SDS011;1673;51.388;7.086;2023-05-10T08:49:49;39.78;;;18.08;;
3321;SDS011;1673;51.388;7.086;2023-05-10T08:52:22;47.75;;;19.67;;
3321;SDS011;1673;51.388;7.086;2023-05-10T08:54:54;37.25;;;18.35;;
3321;SDS011;1673;51.388;7.086;2023-05-10T08:57:24;42.97;;;18.95;;
3321;SDS011;1673;51.388;7.086;2023-05-10T08:59:54;38.47;;;18.85;;
3321;SDS011;1673;51.388;7.086;2023-05-10T09:02:24;41.93;;;19.93;;
3321;SDS011;1673;51.388;7.086;2023-05-10T09:04:54;33.05;;;17.70;;
3321;SDS011;1673;51.388;7.086;2023-05-10T09:07:27;38.47;;;18.83;;
3321;SDS011;1673;51.388;7.086;2023-05-10T09:09:56;42.38;;;18.98;;
3321;SDS011;1673;51.388;7.086;2023-05-10T09:12:27;41.47;;;19.03;;
3321;SDS011;1673;51.388;7.086;2023-05-10T09:14:57;45.47;;;21.05;;
3321;SDS011;1673;51.388;7.086;2023-05-10T09:17:27;41.67;;;20.30;;
3321;SDS011;1673;51.388;7.086;2023-05-10T09:19:58;46.28;;;20.02;;
3321;SDS011;1673;51.388;7.086;2023-05-10T09:22:32;42.92;;;19.38;;
3321;SDS011;1673;51.388;7.086;2023-05-10T09:25:06;43.17;;;20.08;;
3321;SDS011;1673;51.388;7.086;2023-05-10T09:27:37;46.65;;;21.40;;
3321;SDS011;1673;51.388;7.086;2023-05-10T09:30:08;52.90;;;22.27;;
3321;SDS011;1673;51.388;7.086;2023-05-10T09:32:39;44.10;;;20.60;;
3321;SDS011;1673;51.388;7.086;2023-05-10T09:35:09;45.50;;;20.70;;
3321;SDS011;1673;51.388;7.086;2023-05-10T09:37:43;45.20;;;20.30;;
3321;SDS011;1673;51.388;7.086;2023-05-10T09:40:14;51.53;;;22.10;;
3321;SDS011;1673;51.388;7.086;2023-05-10T09:42:50;52.25;;;23.05;;
3321;SDS011;1673;51.388;7.086;2023-05-10T09:45:21;51.17;;;23.40;;
3321;SDS011;1673;51.388;7.086;2023-05-10T09:47:51;53.45;;;23.25;;
3321;SDS011;1673;51.388;7.086;2023-05-10T09:50:22;54.33;;;25.60;;
3321;SDS011;1673;51.388;7.086;2023-05-10T09:52:56;58.75;;;25.48;;
3321;SDS011;1673;51.388;7.086;2023-05-10T09:55:37;63.03;;;26.60;;
3321;SDS011;1673;51.388;7.086;2023-05-10T09:58:08;59.17;;;26.07;;
3321;SDS011;1673;51.388;7.086;2023-05-10T10:00:39;56.00;;;25.10;;
3321;SDS011;1673;51.388;7.086;2023-05-10T10:03:12;57.55;;;26.45;;
3321;SDS011;1673;51.388;7.086;2023-05-10T10:05:42;48.63;;;23.45;;
3321;SDS011;1673;51.388;7.086;2023-05-10T10:08:17;61.80;;;25.15;;
3321;SDS011;1673;51.388;7.086;2023-05-10T10:10:47;56.50;;;25.77;;
3321;SDS011;1673;51.388;7.086;2023-05-10T10:13:16;54.60;;;24.20;;
3321;SDS011;1673;51.388;7.086;2023-05-10T10:15:46;44.58;;;22.88;;
3321;SDS011;1673;51.388;7.086;2023-05-10T10:18:17;46.97;;;21.58;;
3321;SDS011;1673;51.388;7.086;2023-05-10T10:20:50;40.25;;;20.65;;
3321;SDS011;1673;51.388;7.086;2023-05-10T10:23:23;43.55;;;20.65;;
3321;SDS011;1673;51.388;7.086;2023-05-10T10:25:53;42.05;;;21.40;;
3321;SDS011;1673;51.388;7.086;2023-05-10T10:28:25;47.50;;;22.60;;
3321;SDS011;1673;51.388;7.086;2023-05-10T10:31:00;40.50;;;20.05;;
3321;SDS011;1673;51.388;7.086;2023-05-10T10:33:47;40.17;;;20.47;;
3321;SDS011;1673;51.388;7.086;2023-05-10T10:36:23;38.30;;;18.33;;
3321;SDS011;1673;51.388;7.086;2023-05-10T10:38:57;32.38;;;17.13;;
3321;SDS011;1673;51.388;7.086;2023-05-10T10:41:31;38.80;;;18.17;;
3321;SDS011;1673;51.388;7.086;2023-05-10T10:46:59;29.70;;;17.07;;
3321;SDS011;1673;51.388;7.086;2023-05-10T10:49:32;32.10;;;16.77;;
3321;SDS011;1673;51.388;7.086;2023-05-10T10:52:13;31.20;;;16.65;;
3321;SDS011;1673;51.388;7.086;2023-05-10T10:54:52;32.47;;;16.50;;
3321;SDS011;1673;51.388;7.086;2023-05-10T10:57:22;30.27;;;16.27;;
3321;SDS011;1673;51.388;7.086;2023-05-10T10:59:58;33.67;;;17.20;;
3321;SDS011;1673;51.388;7.086;2023-05-10T11:02:49;31.80;;;16.90;;
3321;SDS011;1673;51.388;7.086;2023-05-10T11:05:23;30.25;;;16.48;;
3321;SDS011;1673;51.388;7.086;2023-05-10T11:07:54;29.55;;;16.80;;
3321;SDS011;1673;51.388;7.086;2023-05-10T11:10:28;31.33;;;17.60;;
3321;SDS011;1673;51.388;7.086;2023-05-10T11:12:58;33.37;;;19.50;;
3321;SDS011;1673;51.388;7.086;2023-05-10T11:15:29;42.20;;;22.20;;
3321;SDS011;1673;51.388;7.086;2023-05-10T11:18:01;40.72;;;22.00;;
3321;SDS011;1673;51.388;7.086;2023-05-10T11:20:49;36.88;;;21.63;;
3321;SDS011;1673;51.388;7.086;2023-05-10T11:23:20;39.40;;;22.55;;
3321;SDS011;1673;51.388;7.086;2023-05-10T11:25:52;40.45;;;21.60;;
3321;SDS011;1673;51.388;7.086;2023-05-10T11:28:23;45.15;;;22.52;;
3321;SDS011;1673;51.388;7.086;2023-05-10T11:30:53;35.45;;;20.73;;
3321;SDS011;1673;51.388;7.086;2023-05-10T11:33:23;39.38;;;20.70;;
3321;SDS011;1673;51.388;7.086;2023-05-10T11:35:53;40.72;;;19.75;;
3321;SDS011;1673;51.388;7.086;2023-05-10T11:38:23;40.92;;;20.10;;
3321;SDS011;1673;51.388;7.086;2023-05-10T11:40:55;36.30;;;18.87;;
3321;SDS011;1673;51.388;7.086;2023-05-10T11:43:25;34.20;;;18.80;;
3321;SDS011;1673;51.388;7.086;2023-05-10T11:45:57;34.88;;;18.85;;
3321;SDS011;1673;51.388;7.086;2023-05-10T11:48:27;32.45;;;17.77;;
3321;SDS011;1673;51.388;7.086;2023-05-10T11:50:58;31.60;;;17.05;;
3321;SDS011;1673;51.388;7.086;2023-05-10T11:53:31;36.88;;;18.70;;
3321;SDS011;1673;51.388;7.086;2023-05-10T11:56:07;34.53;;;17.35;;
3321;SDS011;1673;51.388;7.086;2023-05-10T11:58:38;34.33;;;17.60;;
3321;SDS011;1673;51.388;7.086;2023-05-10T12:01:08;28.13;;;14.70;;
3321;SDS011;1673;51.388;7.086;2023-05-10T12:03:39;27.77;;;15.45;;
3321;SDS011;1673;51.388;7.086;2023-05-10T12:06:09;30.08;;;15.88;;
3321;SDS011;1673;51.388;7.086;2023-05-10T12:08:43;27.95;;;16.23;;
3321;SDS011;1673;51.388;7.086;2023-05-10T12:11:16;28.50;;;16.30;;
3321;SDS011;1673;51.388;7.086;2023-05-10T12:13:47;28.38;;;16.15;;
3321;SDS011;1673;51.388;7.086;2023-05-10T12:16:18;32.20;;;16.40;;
3321;SDS011;1673;51.388;7.086;2023-05-10T12:18:49;28.07;;;16.53;;
3321;SDS011;1673;51.388;7.086;2023-05-10T12:21:20;27.23;;;16.00;;
3321;SDS011;1673;51.388;7.086;2023-05-10T12:23:51;24.15;;;14.75;;
3321;SDS011;1673;51.388;7.086;2023-05-10T12:26:24;30.90;;;16.33;;
3321;SDS011;1673;51.388;7.086;2023-05-10T12:28:55;28.17;;;15.70;;
3321;SDS011;1673;51.388;7.086;2023-05-10T12:31:50;27.05;;;16.10;;
3321;SDS011;1673;51.388;7.086;2023-05-10T12:34:25;27.77;;;16.27;;
3321;SDS011;1673;51.388;7.086;2023-05-10T12:36:55;28.20;;;15.43;;
3321;SDS011;1673;51.388;7.086;2023-05-10T12:39:25;31.30;;;15.25;;
3321;SDS011;1673;51.388;7.086;2023-05-10T12:41:57;27.33;;;16.65;;
3321;SDS011;1673;51.388;7.086;2023-05-10T12:44:27;24.92;;;14.90;;
3321;SDS011;1673;51.388;7.086;2023-05-10T12:46:56;30.48;;;17.60;;
3321;SDS011;1673;51.388;7.086;2023-05-10T12:49:26;28.65;;;16.00;;
3321;SDS011;1673;51.388;7.086;2023-05-10T12:51:56;32.97;;;18.98;;
3321;SDS011;1673;51.388;7.086;2023-05-10T12:54:26;31.95;;;20.20;;
3321;SDS011;1673;51.388;7.086;2023-05-10T12:56:58;29.40;;;19.15;;
3321;SDS011;1673;51.388;7.086;2023-05-10T12:59:28;28.38;;;19.38;;
3321;SDS011;1673;51.388;7.086;2023-05-10T13:01:57;32.65;;;19.52;;
3321;SDS011;1673;51.388;7.086;2023-05-10T13:04:27;29.87;;;18.47;;
3321;SDS011;1673;51.388;7.086;2023-05-10T13:06:57;29.75;;;17.80;;
3321;SDS011;1673;51.388;7.086;2023-05-10T13:09:27;28.30;;;17.30;;
3321;SDS011;1673;51.388;7.086;2023-05-10T13:12:00;27.90;;;18.07;;
3321;SDS011;1673;51.388;7.086;2023-05-10T13:14:30;26.77;;;17.10;;
3321;SDS011;1673;51.388;7.086;2023-05-10T13:17:00;27.70;;;17.58;;
3321;SDS011;1673;51.388;7.086;2023-05-10T13:19:30;24.42;;;16.27;;
3321;SDS011;1673;51.388;7.086;2023-05-10T13:22:00;21.83;;;14.55;;
3321;SDS011;1673;51.388;7.086;2023-05-10T13:24:30;21.38;;;13.63;;
3321;SDS011;1673;51.388;7.086;2023-05-10T13:27:02;17.75;;;12.07;;
3321;SDS011;1673;51.388;7.086;2023-05-10T13:29:32;20.85;;;11.85;;
3321;SDS011;1673;51.388;7.086;2023-05-10T13:32:01;20.00;;;11.17;;
3321;SDS011;1673;51.388;7.086;2023-05-10T13:34:31;17.10;;;10.40;;
3321;SDS011;1673;51.388;7.086;2023-05-10T13:37:02;18.10;;;10.43;;
3321;SDS011;1673;51.388;7.086;2023-05-10T13:39:31;17.67;;;10.50;;
3321;SDS011;1673;51.388;7.086;2023-05-10T13:42:06;17.08;;;10.35;;
3321;SDS011;1673;51.388;7.086;2023-05-10T13:44:36;16.10;;;9.53;;
3321;SDS011;1673;51.388;7.086;2023-05-10T13:47:06;16.65;;;9.43;;
3321;SDS011;1673;51.388;7.086;2023-05-10T13:49:36;14.57;;;9.18;;
3321;SDS011;1673;51.388;7.086;2023-05-10T13:52:06;14.82;;;9.60;;
3321;SDS011;1673;51.388;7.086;2023-05-10T13:54:36;15.87;;;8.90;;
3321;SDS011;1673;51.388;7.086;2023-05-10T13:57:08;17.13;;;9.38;;
3321;SDS011;1673;51.388;7.086;2023-05-10T13:59:40;16.15;;;9.73;;
3321;SDS011;1673;51.388;7.086;2023-05-10T14:02:10;15.10;;;10.20;;
3321;SDS011;1673;51.388;7.086;2023-05-10T14:04:39;15.10;;;10.10;;
3321;SDS011;1673;51.388;7.086;2023-05-10T14:07:09;15.82;;;10.43;;
3321;SDS011;1673;51.388;7.086;2023-05-10T14:09:39;16.65;;;10.80;;
3321;SDS011;1673;51.388;7.086;2023-05-10T14:12:11;13.98;;;8.63;;
3321;SDS011;1673;51.388;7.086;2023-05-10T14:14:41;17.15;;;9.50;;
3321;SDS011;1673;51.388;7.086;2023-05-10T14:17:11;17.55;;;11.10;;
3321;SDS011;1673;51.388;7.086;2023-05-10T14:19:41;19.17;;;11.05;;
3321;SDS011;1673;51.388;7.086;2023-05-10T14:22:11;18.20;;;10.88;;
3321;SDS011;1673;51.388;7.086;2023-05-10T14:24:40;22.40;;;12.60;;
3321;SDS011;1673;51.388;7.086;2023-05-10T14:27:15;22.70;;;12.27;;
3321;SDS011;1673;51.388;7.086;2023-05-10T14:29:46;17.63;;;11.82;;
3321;SDS011;1673;51.388;7.086;2023-05-10T14:32:16;18.10;;;11.77;;
3321;SDS011;1673;51.388;7.086;2023-05-10T14:34:46;18.52;;;12.00;;
3321;SDS011;1673;51.388;7.086;2023-05-10T14:37:16;20.48;;;12.77;;
3321;SDS011;1673;51.388;7.086;2023-05-10T14:39:45;19.73;;;12.50;;
3321;SDS011;1673;51.388;7.086;2023-05-10T14:42:18;19.35;;;12.30;;
3321;SDS011;1673;51.388;7.086;2023-05-10T14:44:48;22.15;;;12.70;;
3321;SDS011;1673;51.388;7.086;2023-05-10T14:47:17;18.20;;;12.73;;
3321;SDS011;1673;51.388;7.086;2023-05-10T14:49:47;20.00;;;12.80;;
3321;SDS011;1673;51.388;7.086;2023-05-10T14:52:17;21.42;;;13.00;;
3321;SDS011;1673;51.388;7.086;2023-05-10T14:54:47;20.58;;;12.65;;
3321;SDS011;1673;51.388;7.086;2023-05-10T14:57:19;19.38;;;12.60;;
3321;SDS011;1673;51.388;7.086;2023-05-10T14:59:49;22.20;;;12.30;;
3321;SDS011;1673;51.388;7.086;2023-05-10T15:02:19;16.77;;;10.30;;
3321;SDS011;1673;51.388;7.086;2023-05-10T15:04:49;19.08;;;12.23;;
3321;SDS011;1673;51.388;7.086;2023-05-10T15:07:19;22.35;;;13.98;;
3321;SDS011;1673;51.388;7.086;2023-05-10T15:09:49;23.00;;;13.40;;
3321;SDS011;1673;51.388;7.086;2023-05-10T15:12:22;24.20;;;13.10;;
3321;SDS011;1673;51.388;7.086;2023-05-10T15:14:51;21.70;;;12.50;;
3321;SDS011;1673;51.388;7.086;2023-05-10T15:17:21;19.30;;;12.40;;
3321;SDS011;1673;51.388;7.086;2023-05-10T15:19:51;18.38;;;11.68;;